Terminal Aerodrome Forecast
Issued by NWS Jackson, MS

Home | Current Version | Previous Version | Text Only | Print | Product List | Glossary On
Versions: 1 2 3 4 5 6 7 8 9 10 11 12 13
000
FTUS44 KJAN 221151 RRA
TAFGWO
TAF
KGWO 221151Z 2212/2312 18005KT P6SM VCTS SCT030 BKN060CB
     FM221900 20005KT P6SM VCTS SCT050CB
     FM230000 20005KT P6SM OVC100=

USA.gov is the U.S. government's official web portal to all federal, state and local government web resources and services.